sensor_id;sensor_type;location;lat;lon;timestamp;P1;durP1;ratioP1;P2;durP2;ratioP2
28577;SDS011;15769;52.248;15.818;2022-09-30T00:01:36;81.47;;;43.03;;
28577;SDS011;15769;52.248;15.818;2022-09-30T00:06:41;68.25;;;38.42;;
28577;SDS011;15769;52.248;15.818;2022-09-30T00:11:43;60.33;;;34.60;;
28577;SDS011;15769;52.248;15.818;2022-09-30T00:16:47;68.57;;;36.60;;
28577;SDS011;15769;52.248;15.818;2022-09-30T00:21:50;62.10;;;33.63;;
28577;SDS011;15769;52.248;15.818;2022-09-30T00:26:54;63.17;;;34.08;;
28577;SDS011;15769;52.248;15.818;2022-09-30T00:31:57;64.15;;;34.22;;
28577;SDS011;15769;52.248;15.818;2022-09-30T00:37:00;60.75;;;34.08;;
28577;SDS011;15769;52.248;15.818;2022-09-30T00:42:05;55.95;;;32.10;;
28577;SDS011;15769;52.248;15.818;2022-09-30T00:52:32;68.43;;;37.35;;
28577;SDS011;15769;52.248;15.818;2022-09-30T00:57:35;69.07;;;37.23;;
28577;SDS011;15769;52.248;15.818;2022-09-30T01:02:37;56.00;;;33.77;;
28577;SDS011;15769;52.248;15.818;2022-09-30T01:07:40;61.25;;;34.83;;
28577;SDS011;15769;52.248;15.818;2022-09-30T01:17:54;65.45;;;35.58;;
28577;SDS011;15769;52.248;15.818;2022-09-30T01:33:50;48.03;;;28.00;;
28577;SDS011;15769;52.248;15.818;2022-09-30T01:39:05;50.10;;;28.38;;
28577;SDS011;15769;52.248;15.818;2022-09-30T01:45:04;51.75;;;28.40;;
28577;SDS011;15769;52.248;15.818;2022-09-30T01:49:41;44.50;;;28.02;;
28577;SDS011;15769;52.248;15.818;2022-09-30T01:55:09;52.67;;;30.80;;
28577;SDS011;15769;52.248;15.818;2022-09-30T02:00:16;51.03;;;31.08;;
28577;SDS011;15769;52.248;15.818;2022-09-30T02:05:29;48.10;;;27.70;;
28577;SDS011;15769;52.248;15.818;2022-09-30T02:10:56;56.92;;;32.95;;
28577;SDS011;15769;52.248;15.818;2022-09-30T02:16:04;51.10;;;30.40;;
28577;SDS011;15769;52.248;15.818;2022-09-30T02:21:14;51.40;;;32.17;;
28577;SDS011;15769;52.248;15.818;2022-09-30T02:26:22;62.22;;;34.65;;
28577;SDS011;15769;52.248;15.818;2022-09-30T02:31:26;51.28;;;30.30;;
28577;SDS011;15769;52.248;15.818;2022-09-30T02:36:30;46.95;;;29.50;;
28577;SDS011;15769;52.248;15.818;2022-09-30T02:41:37;46.05;;;30.30;;
28577;SDS011;15769;52.248;15.818;2022-09-30T02:46:49;48.65;;;28.67;;
28577;SDS011;15769;52.248;15.818;2022-09-30T03:02:29;50.20;;;30.00;;
28577;SDS011;15769;52.248;15.818;2022-09-30T03:07:32;51.28;;;31.20;;
28577;SDS011;15769;52.248;15.818;2022-09-30T03:17:53;55.55;;;33.78;;
28577;SDS011;15769;52.248;15.818;2022-09-30T03:23:05;56.20;;;34.67;;
28577;SDS011;15769;52.248;15.818;2022-09-30T03:28:24;50.53;;;32.65;;
28577;SDS011;15769;52.248;15.818;2022-09-30T03:39:47;50.35;;;31.48;;
28577;SDS011;15769;52.248;15.818;2022-09-30T03:44:56;53.78;;;31.63;;
28577;SDS011;15769;52.248;15.818;2022-09-30T03:50:05;53.50;;;31.85;;
28577;SDS011;15769;52.248;15.818;2022-09-30T03:55:10;54.53;;;32.65;;
28577;SDS011;15769;52.248;15.818;2022-09-30T04:00:14;49.67;;;30.10;;
28577;SDS011;15769;52.248;15.818;2022-09-30T04:05:16;58.30;;;35.83;;
28577;SDS011;15769;52.248;15.818;2022-09-30T04:10:19;55.80;;;33.57;;
28577;SDS011;15769;52.248;15.818;2022-09-30T04:15:23;49.30;;;30.02;;
28577;SDS011;15769;52.248;15.818;2022-09-30T04:20:25;47.08;;;29.75;;
28577;SDS011;15769;52.248;15.818;2022-09-30T04:25:27;44.63;;;25.95;;
28577;SDS011;15769;52.248;15.818;2022-09-30T04:30:34;53.80;;;31.55;;
28577;SDS011;15769;52.248;15.818;2022-09-30T04:35:39;53.70;;;30.85;;
28577;SDS011;15769;52.248;15.818;2022-09-30T04:40:41;47.80;;;30.83;;
28577;SDS011;15769;52.248;15.818;2022-09-30T04:45:46;49.42;;;31.15;;
28577;SDS011;15769;52.248;15.818;2022-09-30T04:50:49;53.43;;;32.90;;
28577;SDS011;15769;52.248;15.818;2022-09-30T04:55:56;51.33;;;30.85;;
28577;SDS011;15769;52.248;15.818;2022-09-30T05:01:01;48.78;;;30.65;;
28577;SDS011;15769;52.248;15.818;2022-09-30T05:06:06;50.53;;;29.90;;
28577;SDS011;15769;52.248;15.818;2022-09-30T05:16:12;54.53;;;31.75;;
28577;SDS011;15769;52.248;15.818;2022-09-30T05:21:16;52.85;;;31.77;;
28577;SDS011;15769;52.248;15.818;2022-09-30T05:26:21;43.83;;;27.15;;
28577;SDS011;15769;52.248;15.818;2022-09-30T05:31:26;48.13;;;29.77;;
28577;SDS011;15769;52.248;15.818;2022-09-30T05:36:28;54.17;;;33.38;;
28577;SDS011;15769;52.248;15.818;2022-09-30T05:41:31;61.60;;;35.57;;
28577;SDS011;15769;52.248;15.818;2022-09-30T05:46:34;59.47;;;33.08;;
28577;SDS011;15769;52.248;15.818;2022-09-30T05:51:37;51.90;;;30.75;;
28577;SDS011;15769;52.248;15.818;2022-09-30T05:56:40;134.65;;;55.80;;
28577;SDS011;15769;52.248;15.818;2022-09-30T06:01:42;93.55;;;40.92;;
28577;SDS011;15769;52.248;15.818;2022-09-30T06:06:44;67.40;;;35.40;;
28577;SDS011;15769;52.248;15.818;2022-09-30T06:11:48;50.90;;;29.98;;
28577;SDS011;15769;52.248;15.818;2022-09-30T06:16:51;54.60;;;33.20;;
28577;SDS011;15769;52.248;15.818;2022-09-30T06:21:53;50.93;;;33.20;;
28577;SDS011;15769;52.248;15.818;2022-09-30T06:26:56;46.03;;;30.48;;
28577;SDS011;15769;52.248;15.818;2022-09-30T06:31:58;50.00;;;31.33;;
28577;SDS011;15769;52.248;15.818;2022-09-30T06:37:01;41.47;;;28.92;;
28577;SDS011;15769;52.248;15.818;2022-09-30T06:42:13;39.93;;;27.37;;
28577;SDS011;15769;52.248;15.818;2022-09-30T06:47:16;39.23;;;27.27;;
28577;SDS011;15769;52.248;15.818;2022-09-30T06:52:26;38.15;;;26.42;;
28577;SDS011;15769;52.248;15.818;2022-09-30T06:57:29;37.80;;;27.52;;
28577;SDS011;15769;52.248;15.818;2022-09-30T07:02:32;39.03;;;27.10;;
28577;SDS011;15769;52.248;15.818;2022-09-30T07:07:35;37.15;;;27.63;;
28577;SDS011;15769;52.248;15.818;2022-09-30T07:12:38;36.00;;;25.48;;
28577;SDS011;15769;52.248;15.818;2022-09-30T07:17:41;38.30;;;26.58;;
28577;SDS011;15769;52.248;15.818;2022-09-30T07:22:44;41.22;;;28.75;;
28577;SDS011;15769;52.248;15.818;2022-09-30T07:27:47;43.58;;;29.90;;
28577;SDS011;15769;52.248;15.818;2022-09-30T07:32:49;39.20;;;27.75;;
28577;SDS011;15769;52.248;15.818;2022-09-30T07:37:52;45.83;;;31.77;;
28577;SDS011;15769;52.248;15.818;2022-09-30T07:42:57;45.97;;;30.60;;
28577;SDS011;15769;52.248;15.818;2022-09-30T07:48:00;44.08;;;30.73;;
28577;SDS011;15769;52.248;15.818;2022-09-30T07:58:05;47.50;;;30.40;;
28577;SDS011;15769;52.248;15.818;2022-09-30T08:03:09;41.50;;;29.42;;
28577;SDS011;15769;52.248;15.818;2022-09-30T08:08:11;40.97;;;28.88;;
28577;SDS011;15769;52.248;15.818;2022-09-30T08:13:15;39.15;;;29.40;;
28577;SDS011;15769;52.248;15.818;2022-09-30T08:18:17;37.40;;;26.57;;
28577;SDS011;15769;52.248;15.818;2022-09-30T08:28:44;40.88;;;28.38;;
28577;SDS011;15769;52.248;15.818;2022-09-30T08:33:50;41.17;;;27.35;;
28577;SDS011;15769;52.248;15.818;2022-09-30T08:38:53;35.63;;;24.80;;
28577;SDS011;15769;52.248;15.818;2022-09-30T08:54:47;30.00;;;22.38;;
28577;SDS011;15769;52.248;15.818;2022-09-30T09:55:47;19.27;;;16.02;;
28577;SDS011;15769;52.248;15.818;2022-09-30T10:00:50;19.42;;;14.60;;
28577;SDS011;15769;52.248;15.818;2022-09-30T10:17:40;15.52;;;12.80;;
28577;SDS011;15769;52.248;15.818;2022-09-30T10:35:29;15.00;;;11.45;;
28577;SDS011;15769;52.248;15.818;2022-09-30T11:24:41;13.70;;;10.98;;
28577;SDS011;15769;52.248;15.818;2022-09-30T11:29:51;12.65;;;9.07;;
28577;SDS011;15769;52.248;15.818;2022-09-30T11:45:47;10.90;;;8.50;;
28577;SDS011;15769;52.248;15.818;2022-09-30T12:04:53;11.45;;;8.30;;
28577;SDS011;15769;52.248;15.818;2022-09-30T12:10:04;9.38;;;7.30;;
28577;SDS011;15769;52.248;15.818;2022-09-30T12:15:36;22.00;;;15.05;;
28577;SDS011;15769;52.248;15.818;2022-09-30T12:20:57;9.32;;;7.05;;
28577;SDS011;15769;52.248;15.818;2022-09-30T12:26:04;7.75;;;5.95;;
28577;SDS011;15769;52.248;15.818;2022-09-30T12:31:23;6.70;;;6.00;;
28577;SDS011;15769;52.248;15.818;2022-09-30T12:42:07;6.03;;;5.40;;
28577;SDS011;15769;52.248;15.818;2022-09-30T12:53:18;6.50;;;5.03;;
28577;SDS011;15769;52.248;15.818;2022-09-30T12:58:48;6.22;;;5.10;;
28577;SDS011;15769;52.248;15.818;2022-09-30T13:14:36;5.28;;;4.35;;
28577;SDS011;15769;52.248;15.818;2022-09-30T13:19:52;6.20;;;5.00;;
28577;SDS011;15769;52.248;15.818;2022-09-30T13:25:59;9.55;;;5.93;;
28577;SDS011;15769;52.248;15.818;2022-09-30T13:31:09;10.07;;;7.30;;
28577;SDS011;15769;52.248;15.818;2022-09-30T13:36:27;5.90;;;5.30;;
28577;SDS011;15769;52.248;15.818;2022-09-30T13:41:35;5.67;;;4.00;;
28577;SDS011;15769;52.248;15.818;2022-09-30T13:51:53;5.40;;;4.32;;
28577;SDS011;15769;52.248;15.818;2022-09-30T13:56:56;9.17;;;7.47;;
28577;SDS011;15769;52.248;15.818;2022-09-30T14:02:12;12.05;;;7.10;;
28577;SDS011;15769;52.248;15.818;2022-09-30T14:23:31;7.47;;;4.72;;
28577;SDS011;15769;52.248;15.818;2022-09-30T14:33:46;7.22;;;6.00;;
28577;SDS011;15769;52.248;15.818;2022-09-30T14:38:51;7.47;;;5.47;;
28577;SDS011;15769;52.248;15.818;2022-09-30T14:43:59;5.90;;;4.90;;
28577;SDS011;15769;52.248;15.818;2022-09-30T14:49:11;7.78;;;5.80;;
28577;SDS011;15769;52.248;15.818;2022-09-30T14:54:17;5.85;;;4.65;;
28577;SDS011;15769;52.248;15.818;2022-09-30T14:59:26;5.07;;;4.22;;
28577;SDS011;15769;52.248;15.818;2022-09-30T15:04:36;13.43;;;7.13;;
28577;SDS011;15769;52.248;15.818;2022-09-30T15:09:41;10.70;;;6.53;;
28577;SDS011;15769;52.248;15.818;2022-09-30T15:19:50;41.85;;;24.08;;
28577;SDS011;15769;52.248;15.818;2022-09-30T15:24:53;25.63;;;16.63;;
28577;SDS011;15769;52.248;15.818;2022-09-30T15:30:00;18.17;;;11.48;;
28577;SDS011;15769;52.248;15.818;2022-09-30T15:35:11;13.65;;;8.90;;
28577;SDS011;15769;52.248;15.818;2022-09-30T15:40:22;13.32;;;9.07;;
28577;SDS011;15769;52.248;15.818;2022-09-30T15:45:44;12.57;;;8.68;;
28577;SDS011;15769;52.248;15.818;2022-09-30T15:51:00;14.15;;;10.50;;
28577;SDS011;15769;52.248;15.818;2022-09-30T15:56:42;20.55;;;12.65;;
28577;SDS011;15769;52.248;15.818;2022-09-30T16:01:50;16.75;;;11.45;;
28577;SDS011;15769;52.248;15.818;2022-09-30T16:07:12;24.85;;;12.77;;
28577;SDS011;15769;52.248;15.818;2022-09-30T16:12:20;24.40;;;13.63;;
28577;SDS011;15769;52.248;15.818;2022-09-30T16:17:29;23.25;;;13.25;;
28577;SDS011;15769;52.248;15.818;2022-09-30T16:27:43;16.35;;;9.55;;
28577;SDS011;15769;52.248;15.818;2022-09-30T16:32:48;11.60;;;8.07;;
28577;SDS011;15769;52.248;15.818;2022-09-30T16:38:03;10.38;;;7.35;;
28577;SDS011;15769;52.248;15.818;2022-09-30T16:43:07;11.63;;;6.53;;
28577;SDS011;15769;52.248;15.818;2022-09-30T16:48:13;10.05;;;6.90;;
28577;SDS011;15769;52.248;15.818;2022-09-30T16:53:18;11.30;;;6.93;;
28577;SDS011;15769;52.248;15.818;2022-09-30T16:58:22;11.30;;;6.78;;
28577;SDS011;15769;52.248;15.818;2022-09-30T17:03:25;10.77;;;7.00;;
28577;SDS011;15769;52.248;15.818;2022-09-30T17:08:28;9.57;;;6.75;;
28577;SDS011;15769;52.248;15.818;2022-09-30T17:13:31;15.40;;;8.70;;
28577;SDS011;15769;52.248;15.818;2022-09-30T17:18:34;13.55;;;8.95;;
28577;SDS011;15769;52.248;15.818;2022-09-30T17:23:37;13.27;;;8.63;;
28577;SDS011;15769;52.248;15.818;2022-09-30T17:28:40;13.98;;;9.35;;
28577;SDS011;15769;52.248;15.818;2022-09-30T17:33:43;14.97;;;10.80;;
28577;SDS011;15769;52.248;15.818;2022-09-30T17:38:46;15.15;;;10.60;;
28577;SDS011;15769;52.248;15.818;2022-09-30T17:43:54;19.40;;;13.18;;
28577;SDS011;15769;52.248;15.818;2022-09-30T17:48:59;19.95;;;13.25;;
28577;SDS011;15769;52.248;15.818;2022-09-30T17:59:09;31.88;;;20.35;;
28577;SDS011;15769;52.248;15.818;2022-09-30T18:04:12;29.83;;;20.40;;
28577;SDS011;15769;52.248;15.818;2022-09-30T18:09:14;24.27;;;16.80;;
28577;SDS011;15769;52.248;15.818;2022-09-30T18:14:17;35.13;;;20.98;;
28577;SDS011;15769;52.248;15.818;2022-09-30T18:19:21;71.07;;;35.75;;
28577;SDS011;15769;52.248;15.818;2022-09-30T18:24:24;60.10;;;31.05;;
28577;SDS011;15769;52.248;15.818;2022-09-30T18:29:46;35.28;;;22.45;;
28577;SDS011;15769;52.248;15.818;2022-09-30T18:34:50;29.38;;;18.38;;
28577;SDS011;15769;52.248;15.818;2022-09-30T18:39:56;25.70;;;16.50;;
28577;SDS011;15769;52.248;15.818;2022-09-30T18:44:59;25.30;;;16.10;;
28577;SDS011;15769;52.248;15.818;2022-09-30T18:50:02;21.43;;;14.47;;
28577;SDS011;15769;52.248;15.818;2022-09-30T19:00:09;19.02;;;12.90;;
28577;SDS011;15769;52.248;15.818;2022-09-30T19:05:13;20.23;;;12.85;;
28577;SDS011;15769;52.248;15.818;2022-09-30T19:10:19;17.73;;;12.90;;
28577;SDS011;15769;52.248;15.818;2022-09-30T19:20:26;21.88;;;14.13;;
28577;SDS011;15769;52.248;15.818;2022-09-30T19:25:29;23.17;;;14.90;;
28577;SDS011;15769;52.248;15.818;2022-09-30T19:30:32;22.23;;;14.60;;
28577;SDS011;15769;52.248;15.818;2022-09-30T19:35:43;24.23;;;15.63;;
28577;SDS011;15769;52.248;15.818;2022-09-30T19:40:54;23.23;;;14.85;;
28577;SDS011;15769;52.248;15.818;2022-09-30T19:45:58;24.63;;;15.38;;
28577;SDS011;15769;52.248;15.818;2022-09-30T19:51:03;24.80;;;15.65;;
28577;SDS011;15769;52.248;15.818;2022-09-30T19:56:12;23.02;;;15.30;;
28577;SDS011;15769;52.248;15.818;2022-09-30T20:01:25;24.67;;;14.20;;
28577;SDS011;15769;52.248;15.818;2022-09-30T20:06:33;22.05;;;14.70;;
28577;SDS011;15769;52.248;15.818;2022-09-30T20:11:39;20.52;;;14.43;;
28577;SDS011;15769;52.248;15.818;2022-09-30T20:16:41;22.07;;;15.03;;
28577;SDS011;15769;52.248;15.818;2022-09-30T20:21:47;22.95;;;16.42;;
28577;SDS011;15769;52.248;15.818;2022-09-30T20:31:53;25.80;;;17.02;;
28577;SDS011;15769;52.248;15.818;2022-09-30T20:36:57;23.65;;;16.67;;
28577;SDS011;15769;52.248;15.818;2022-09-30T20:42:00;25.77;;;16.80;;
28577;SDS011;15769;52.248;15.818;2022-09-30T20:47:02;26.42;;;18.05;;
28577;SDS011;15769;52.248;15.818;2022-09-30T20:52:05;30.30;;;19.17;;
28577;SDS011;15769;52.248;15.818;2022-09-30T20:57:07;29.33;;;19.80;;
28577;SDS011;15769;52.248;15.818;2022-09-30T21:02:10;28.00;;;18.02;;
28577;SDS011;15769;52.248;15.818;2022-09-30T21:07:15;30.73;;;19.70;;
28577;SDS011;15769;52.248;15.818;2022-09-30T21:12:17;29.67;;;19.23;;
28577;SDS011;15769;52.248;15.818;2022-09-30T21:17:20;28.80;;;19.90;;
28577;SDS011;15769;52.248;15.818;2022-09-30T21:22:22;29.75;;;19.67;;
28577;SDS011;15769;52.248;15.818;2022-09-30T21:27:24;33.03;;;21.23;;
28577;SDS011;15769;52.248;15.818;2022-09-30T21:32:26;34.85;;;20.85;;
28577;SDS011;15769;52.248;15.818;2022-09-30T21:37:30;30.95;;;21.35;;
28577;SDS011;15769;52.248;15.818;2022-09-30T21:42:32;32.05;;;20.35;;
28577;SDS011;15769;52.248;15.818;2022-09-30T21:47:34;33.53;;;22.48;;
28577;SDS011;15769;52.248;15.818;2022-09-30T21:52:37;34.33;;;22.23;;
28577;SDS011;15769;52.248;15.818;2022-09-30T21:57:40;33.85;;;21.85;;
28577;SDS011;15769;52.248;15.818;2022-09-30T22:02:42;30.42;;;20.98;;
28577;SDS011;15769;52.248;15.818;2022-09-30T22:07:45;33.13;;;22.08;;
28577;SDS011;15769;52.248;15.818;2022-09-30T22:12:48;34.33;;;22.02;;
28577;SDS011;15769;52.248;15.818;2022-09-30T22:22:54;28.77;;;20.05;;
28577;SDS011;15769;52.248;15.818;2022-09-30T22:27:56;33.92;;;21.60;;
28577;SDS011;15769;52.248;15.818;2022-09-30T22:32:59;32.03;;;21.50;;
28577;SDS011;15769;52.248;15.818;2022-09-30T22:38:20;33.88;;;21.75;;
28577;SDS011;15769;52.248;15.818;2022-09-30T22:43:23;33.33;;;21.95;;
28577;SDS011;15769;52.248;15.818;2022-09-30T22:48:26;34.75;;;22.30;;
28577;SDS011;15769;52.248;15.818;2022-09-30T22:53:29;36.72;;;23.05;;
28577;SDS011;15769;52.248;15.818;2022-09-30T22:58:32;35.38;;;23.15;;
28577;SDS011;15769;52.248;15.818;2022-09-30T23:03:37;41.85;;;24.67;;
28577;SDS011;15769;52.248;15.818;2022-09-30T23:08:40;32.70;;;22.38;;
28577;SDS011;15769;52.248;15.818;2022-09-30T23:13:43;37.72;;;23.23;;
28577;SDS011;15769;52.248;15.818;2022-09-30T23:18:47;36.70;;;23.13;;
28577;SDS011;15769;52.248;15.818;2022-09-30T23:23:49;37.42;;;23.90;;
28577;SDS011;15769;52.248;15.818;2022-09-30T23:28:55;34.75;;;22.88;;
28577;SDS011;15769;52.248;15.818;2022-09-30T23:34:01;38.00;;;24.05;;
28577;SDS011;15769;52.248;15.818;2022-09-30T23:39:12;35.65;;;23.05;;
28577;SDS011;15769;52.248;15.818;2022-09-30T23:44:19;34.38;;;23.00;;
28577;SDS011;15769;52.248;15.818;2022-09-30T23:49:21;35.53;;;23.58;;
28577;SDS011;15769;52.248;15.818;2022-09-30T23:54:23;37.38;;;23.92;;
28577;SDS011;15769;52.248;15.818;2022-09-30T23:59:26;34.83;;;22.20;;
